Portada
METAR-TAF:

METAR-TAF

Aeroports :

Tiruchirappal·li, Índia

latitud: 10-46N, longitud: 078-43E, altitud: 85 m

Observació

L'informe es va fer fa 25 minuts, a les 10:00 UTC
Vent 8 kt del Sud/Sud-Est
Temperatura 41°C
Humitat 41%
Pressió 1005 hPa
Visibilitat 10 km o més
Escasses núvols a una alçada de 1800 ft
Núvols disperses a una alçada de 2500 ft

METAR: VOTR 181000Z 16008KT 9999 FEW018 SCT025 41/25 Q1005 NOSIG

Hora: 15:55 (10:25 UTC)

Pronòstic

L'informe es va fer fa 5 hores i 25 minuts, a les 05:00 UTC
Pronòstic vàlid del 18 a les 06 UTC al 19 a les 12 UTC
Vent 5 kt del Sud
Visibilitat: 6000 m
Escasses núvols a una alçada de 1800 ft
Evolucionant progressivament
l' 18 a les 23 UTC al 18 a les 14 UTC
Vent kt del Nord
Visibilitat: 5000 m
calitja
Evolucionant progressivament
l' 19 a les 03 UTC al 19 a les 04 UTC
Vent 5 kt del Sud
Visibilitat: 6000 m

TAF: VOTR 180500Z 1806/1912 18005KT 6000 FEW018 BECMG 1823/1814 00000KT 5000 HZ BECMG 1903/1904 18005KT 6000

Observacions i pronòstics meteorològics de més de 4000 aeroports (METAR i TAF).

Les estacions disponibles són els punts grocs i vermells al mapa.

Posi el ratolí al punt desitjat per veure el nom de l'estació.

Feu clic per veure les observacions i els pronòstics meteorològics.

Per canviar el mapa: feu clic els botons verds amb una creu de color negre per apropar; al botó verd amb un guió per allunyar la imatge; o en les fletxes verdes per a mapes adjacents.


METAR-TAF: